Time;durP1;ratioP1;P1;durP2;ratioP2;P2;SDS_P1;SDS_P2;PMS_P1;PMS_P2;Temp;Humidity;BMP_temperature;BMP_pressure;BME280_temperature;BME280_humidity;BME280_pressure;Samples;Min_cycle;Max_cycle;Signal;HPM_P1;HPM_P2
2021/05/24 00:00:39;;;;;;;3.63;2.00;;;7.60;99.90;;;;;;5082732;28;20503;-81
2021/05/24 00:03:05;;;;;;;3.03;2.07;;;7.50;99.90;;;;;;5065099;28;20385;-81
2021/05/24 00:05:33;;;;;;;2.50;2.20;;;7.50;99.90;;;;;;5082395;28;20204;-81
2021/05/24 00:07:59;;;;;;;2.37;1.93;;;7.40;99.90;;;;;;5085353;28;20173;-81
2021/05/24 00:10:27;;;;;;;1.60;1.50;;;7.40;99.90;;;;;;5086205;28;20231;-81
2021/05/24 00:12:56;;;;;;;2.07;1.87;;;7.40;99.90;;;;;;5068648;28;20259;-81
2021/05/24 00:15:28;;;;;;;2.63;1.80;;;7.40;99.90;;;;;;5085569;28;20176;-81
2021/05/24 00:17:55;;;;;;;3.80;2.00;;;;;;;;;;5085777;28;20169;-81
2021/05/24 00:20:24;;;;;;;2.40;2.00;;;7.30;99.90;;;;;;5085555;28;20418;-81
2021/05/24 00:22:50;;;;;;;3.10;2.13;;;7.30;99.90;;;;;;5085159;28;20189;-81
2021/05/24 00:25:16;;;;;;;2.40;2.10;;;7.20;99.90;;;;;;5086094;28;20682;-81
2021/05/24 00:27:42;;;;;;;4.37;2.33;;;7.20;99.90;;;;;;5086128;28;20181;-81
2021/05/24 00:30:09;;;;;;;4.17;2.27;;;7.20;99.90;;;;;;5067344;28;20609;-81
2021/05/24 00:32:34;;;;;;;2.60;2.17;;;7.10;99.90;;;;;;5068913;28;20192;-81
2021/05/24 00:35:00;;;;;;;3.93;2.40;;;7.10;99.90;;;;;;5069691;28;20248;-81
2021/05/24 00:37:26;;;;;;;3.97;2.53;;;7.10;99.90;;;;;;5069800;28;20280;-81
2021/05/24 00:39:52;;;;;;;8.93;4.53;;;7.00;99.90;;;;;;5067726;28;20192;-81
2021/05/24 00:42:17;;;;;;;18.80;9.53;;;7.00;99.90;;;;;;5067191;28;20192;-81
2021/05/24 00:44:44;;;;;;;5.80;3.60;;;7.00;99.90;;;;;;5066931;28;20204;-81
2021/05/24 00:47:09;;;;;;;6.87;4.27;;;7.00;99.90;;;;;;5067263;28;20177;-81
2021/05/24 00:49:35;;;;;;;5.77;3.87;;;7.00;99.90;;;;;;5084774;28;20203;-81
2021/05/24 00:52:01;;;;;;;5.33;3.20;;;7.00;99.90;;;;;;5067006;28;20185;-81
2021/05/24 00:54:28;;;;;;;7.47;3.13;;;7.00;99.90;;;;;;5085144;28;20200;-81
2021/05/24 00:56:57;;;;;;;9.10;3.67;;;7.00;99.90;;;;;;5084879;28;20422;-81
2021/05/24 00:59:22;;;;;;;25.37;12.30;;;7.00;99.90;;;;;;5066718;28;20182;-81
2021/05/24 01:01:48;;;;;;;18.83;8.83;;;6.90;99.90;;;;;;5066408;28;20184;-81
2021/05/24 01:04:16;;;;;;;19.17;7.57;;;7.00;99.90;;;;;;5065758;28;20209;-81
2021/05/24 01:06:43;;;;;;;25.60;15.80;;;6.90;99.90;;;;;;5066155;28;20192;-81
2021/05/24 01:09:09;;;;;;;7.00;4.67;;;6.90;99.90;;;;;;5084255;28;20419;-81
2021/05/24 01:11:36;;;;;;;3.40;2.83;;;6.80;99.90;;;;;;5083662;28;20180;-81
2021/05/24 01:14:02;;;;;;;7.90;5.93;;;6.90;99.90;;;;;;5066065;28;20193;-81
2021/05/24 01:16:27;;;;;;;3.27;2.13;;;6.90;99.90;;;;;;5083491;28;20411;-81
2021/05/24 01:18:53;;;;;;;1.90;1.53;;;6.90;99.90;;;;;;5083337;28;20233;-81
2021/05/24 01:21:21;;;;;;;5.60;4.33;;;6.90;99.90;;;;;;5084413;28;20181;-81
2021/05/24 01:23:47;;;;;;;4.17;2.50;;;6.90;99.90;;;;;;5066044;28;20231;-81
2021/05/24 01:26:14;;;;;;;1.67;1.57;;;6.90;99.90;;;;;;5083878;28;20192;-80
2021/05/24 01:28:40;;;;;;;2.00;1.80;;;6.90;99.90;;;;;;5064950;28;20581;-81
2021/05/24 01:31:06;;;;;;;3.20;2.87;;;;;;;;;;5083080;28;20176;-81
2021/05/24 01:33:36;;;;;;;3.00;2.67;;;6.70;99.90;;;;;;5065891;28;20685;-81
2021/05/24 01:36:08;;;;;;;2.80;1.80;;;6.70;99.90;;;;;;5082392;28;20414;-81
2021/05/24 01:38:37;;;;;;;1.70;1.60;;;6.70;99.90;;;;;;5082436;28;20173;-80
2021/05/24 01:41:05;;;;;;;2.50;1.80;;;6.70;99.90;;;;;;5072500;28;20430;-80
2021/05/24 01:43:30;;;;;;;2.37;2.00;;;6.70;99.90;;;;;;5084303;28;20483;-81
2021/05/24 01:45:57;;;;;;;6.17;1.90;;;;;;;;;;5083030;28;20234;-81
2021/05/24 01:48:23;;;;;;;2.47;2.27;;;6.50;99.90;;;;;;5083323;28;20173;-81
2021/05/24 01:50:50;;;;;;;1.83;1.63;;;6.50;99.90;;;;;;5083995;28;20169;-81
2021/05/24 01:53:16;;;;;;;5.20;2.27;;;;;;;;;;5066717;28;20435;-81
2021/05/24 01:55:42;;;;;;;3.07;2.40;;;;;;;;;;5083908;28;20411;-81
2021/05/24 01:58:08;;;;;;;5.30;2.30;;;;;;;;;;5067552;28;20427;-81
2021/05/24 02:00:34;;;;;;;6.37;2.60;;;6.40;99.90;;;;;;5091232;28;20415;-81
2021/05/24 02:03:00;;;;;;;2.73;2.33;;;6.40;99.90;;;;;;5072626;28;20230;-81
2021/05/24 02:05:27;;;;;;;3.67;3.30;;;6.40;99.90;;;;;;5069289;28;20212;-82
2021/05/24 02:07:54;;;;;;;4.00;3.40;;;6.40;99.90;;;;;;5068477;28;20249;-81
2021/05/24 02:10:23;;;;;;;5.13;4.30;;;6.40;99.90;;;;;;5068449;28;20181;-81
2021/05/24 02:12:49;;;;;;;3.00;2.70;;;;;;;;;;5085508;28;20189;-81
2021/05/24 02:15:22;;;;;;;2.60;2.40;;;6.40;99.90;;;;;;5065302;28;21031;-81
2021/05/24 02:17:48;;;;;;;3.30;2.70;;;6.30;99.90;;;;;;5084424;28;20184;-81
2021/05/24 02:20:20;;;;;;;2.70;2.33;;;;;;;;;;5065911;28;20183;-81
2021/05/24 02:22:45;;;;;;;2.47;2.17;;;6.30;99.90;;;;;;5066048;28;20492;-81
2021/05/24 02:25:12;;;;;;;5.10;2.00;;;6.40;99.90;;;;;;5065368;28;20467;-81
2021/05/24 02:27:38;;;;;;;3.50;3.20;;;;;;;;;;5065417;28;20184;-81
2021/05/24 02:30:06;;;;;;;2.93;2.73;;;6.30;99.90;;;;;;5083085;28;20407;-81
2021/05/24 02:32:32;;;;;;;3.57;2.20;;;;;;;;;;5083612;28;20407;-81
2021/05/24 02:34:58;;;;;;;2.90;2.33;;;;;;;;;;5065976;28;20419;-81
2021/05/24 02:37:24;;;;;;;3.47;2.90;;;6.20;99.90;;;;;;5083271;28;20407;-81
2021/05/24 02:39:50;;;;;;;3.33;2.90;;;6.20;99.90;;;;;;5064868;28;20230;-81
2021/05/24 02:42:16;;;;;;;4.03;2.30;;;;;;;;;;5082784;28;20181;-81
2021/05/24 02:44:42;;;;;;;3.07;2.43;;;;;;;;;;5064315;28;20228;-81
2021/05/24 02:47:08;;;;;;;2.90;2.57;;;6.10;99.90;;;;;;5082300;28;20881;-81
2021/05/24 02:49:34;;;;;;;4.70;3.10;;;6.10;99.90;;;;;;5082854;28;20696;-81
2021/05/24 02:52:00;;;;;;;3.30;3.00;;;;;;;;;;5083443;28;20177;-81
2021/05/24 02:54:25;;;;;;;4.17;2.73;;;6.10;99.90;;;;;;5083071;28;20259;-81
2021/05/24 02:56:51;;;;;;;2.87;2.67;;;;;;;;;;5083999;28;20204;-81
2021/05/24 02:59:17;;;;;;;2.67;2.47;;;6.00;99.90;;;;;;5083532;28;20188;-81
2021/05/24 03:01:43;;;;;;;5.63;3.80;;;;;;;;;;5083179;28;20184;-81
2021/05/24 03:04:10;;;;;;;2.80;2.50;;;;;;;;;;5064961;28;20564;-81
2021/05/24 03:06:36;;;;;;;3.40;3.10;;;5.90;99.90;;;;;;5083597;28;20399;-81
2021/05/24 03:09:02;;;;;;;6.90;3.00;;;;;;;;;;5083498;28;20755;-81
2021/05/24 03:11:28;;;;;;;3.33;3.03;;;6.00;99.90;;;;;;5083290;28;20708;-81
2021/05/24 03:13:54;;;;;;;2.80;2.60;;;;;;;;;;5083197;28;20427;-81
2021/05/24 03:16:20;;;;;;;2.67;2.47;;;5.70;99.90;;;;;;5083954;28;20237;-81
2021/05/24 03:18:46;;;;;;;2.90;2.50;;;5.60;99.90;;;;;;5083686;28;20407;-81
2021/05/24 03:21:11;;;;;;;3.47;3.17;;;5.70;99.90;;;;;;5084325;28;20176;-81
2021/05/24 03:23:37;;;;;;;3.23;2.90;;;;;;;;;;5083189;28;20261;-81
2021/05/24 03:26:03;;;;;;;2.20;1.90;;;5.70;99.90;;;;;;5065222;28;20208;-81
2021/05/24 03:28:29;;;;;;;2.40;2.20;;;;;;;;;;5066028;28;20921;-81
2021/05/24 03:30:55;;;;;;;3.07;2.80;;;;;;;;;;5083538;28;20418;-81
2021/05/24 03:33:21;;;;;;;4.30;2.30;;;5.70;99.90;;;;;;5083359;28;20431;-81
2021/05/24 03:35:47;;;;;;;3.10;2.80;;;5.70;99.90;;;;;;5065645;28;20187;-81
2021/05/24 03:38:12;;;;;;;3.07;2.80;;;5.80;99.90;;;;;;5083699;28;20173;-81
2021/05/24 03:40:38;;;;;;;2.37;2.17;;;5.70;99.90;;;;;;5066802;28;20187;-81
2021/05/24 03:43:04;;;;;;;2.40;2.20;;;5.80;99.90;;;;;;5067058;28;20269;-81
2021/05/24 03:45:32;;;;;;;3.33;2.63;;;;;;;;;;5084745;28;20289;-81
2021/05/24 03:47:58;;;;;;;2.07;1.87;;;5.70;99.90;;;;;;5092099;28;20303;-81
2021/05/24 03:50:25;;;;;;;3.57;2.10;;;5.60;99.90;;;;;;5089126;28;20169;-81
2021/05/24 03:52:52;;;;;;;4.50;2.27;;;5.50;99.90;;;;;;5091617;28;20185;-80
2021/05/24 03:55:18;;;;;;;3.13;1.63;;;;;;;;;;5090040;28;20407;-81
2021/05/24 03:57:46;;;;;;;2.87;1.80;;;5.50;99.90;;;;;;5086893;28;20417;-81
2021/05/24 04:00:12;;;;;;;2.20;2.00;;;5.50;99.90;;;;;;5069508;28;20427;-81
2021/05/24 04:02:38;;;;;;;3.47;2.20;;;5.60;99.90;;;;;;5069395;28;20435;-81
2021/05/24 04:05:13;;;;;;;3.53;2.00;;;5.60;99.90;;;;;;5068468;28;20215;-81
2021/05/24 04:07:39;;;;;;;1.73;1.63;;;5.60;99.90;;;;;;5087181;28;20224;-81
2021/05/24 04:10:05;;;;;;;1.93;1.70;;;5.60;99.90;;;;;;5069303;28;20415;-81
2021/05/24 04:12:31;;;;;;;2.33;2.00;;;;;;;;;;5069068;28;20173;-81
2021/05/24 04:14:57;;;;;;;4.70;2.03;;;5.60;99.90;;;;;;5070238;28;20760;-81
2021/05/24 04:17:26;;;;;;;2.63;2.10;;;5.70;99.90;;;;;;5071271;28;20181;-81
2021/05/24 04:19:52;;;;;;;2.23;2.00;;;5.80;99.90;;;;;;5071177;28;20184;-81
2021/05/24 04:22:18;;;;;;;5.43;2.23;;;6.00;99.90;;;;;;5072307;28;20421;-81
2021/05/24 04:24:43;;;;;;;1.63;1.53;;;5.90;99.90;;;;;;5084399;28;20265;-81
2021/05/24 04:27:09;;;;;;;2.47;1.70;;;6.00;99.90;;;;;;5085111;28;20176;-81
2021/05/24 04:29:35;;;;;;;1.70;1.60;;;6.10;99.90;;;;;;5085081;28;20344;-80
2021/05/24 04:32:00;;;;;;;1.57;1.40;;;6.10;99.90;;;;;;5084540;28;20213;-81
2021/05/24 04:34:26;;;;;;;1.40;1.20;;;6.10;99.90;;;;;;5066817;28;20201;-81
2021/05/24 04:36:52;;;;;;;2.97;1.40;;;6.10;99.90;;;;;;5085250;28;20188;-81
2021/05/24 04:39:17;;;;;;;1.90;1.70;;;6.20;99.90;;;;;;5085101;28;20181;-81
2021/05/24 04:41:43;;;;;;;1.30;1.20;;;6.30;99.90;;;;;;5068136;28;20183;-81
2021/05/24 04:44:18;;;;;;;1.37;1.07;;;6.30;99.90;;;;;;5088991;28;20188;-80
2021/05/24 04:46:48;;;;;;;1.90;1.30;;;6.40;99.90;;;;;;5092198;28;20162;-81
2021/05/24 04:49:14;;;;;;;1.70;1.60;;;;;;;;;;5069039;28;20199;-81
2021/05/24 04:51:40;;;;;;;1.40;1.30;;;6.40;99.90;;;;;;5068861;28;20396;-81
2021/05/24 04:54:07;;;;;;;2.07;1.40;;;6.40;99.90;;;;;;5067883;28;20208;-81
2021/05/24 04:56:34;;;;;;;1.67;1.00;;;6.40;99.90;;;;;;5068046;28;20231;-81
2021/05/24 04:58:59;;;;;;;5.97;1.23;;;6.40;99.90;;;;;;5068260;28;20415;-81
2021/05/24 05:01:25;;;;;;;1.60;1.07;;;6.40;99.90;;;;;;5068599;28;20279;-81
2021/05/24 05:03:51;;;;;;;1.60;1.50;;;;;;;;;;5086623;28;20189;-81
2021/05/24 05:06:17;;;;;;;2.77;1.10;;;6.50;99.90;;;;;;5067853;28;20205;-81
2021/05/24 05:08:42;;;;;;;1.43;1.10;;;6.50;99.90;;;;;;5069130;28;20473;-81
2021/05/24 05:11:08;;;;;;;1.57;1.10;;;6.50;99.90;;;;;;5086818;28;20259;-81
2021/05/24 05:13:34;;;;;;;1.30;1.20;;;;;;;;;;5069551;28;20260;-81
2021/05/24 05:16:00;;;;;;;2.10;1.27;;;6.60;99.90;;;;;;5069229;28;20272;-81
2021/05/24 05:18:25;;;;;;;1.17;0.90;;;6.60;99.90;;;;;;5070494;28;20420;-81
2021/05/24 05:20:51;;;;;;;1.13;1.03;;;6.70;99.90;;;;;;5069390;28;20184;-81
2021/05/24 05:23:19;;;;;;;2.10;1.10;;;6.70;99.90;;;;;;5069208;28;20208;-81
2021/05/24 05:25:44;;;;;;;1.10;1.10;;;6.80;99.90;;;;;;5069010;28;20209;-81
2021/05/24 05:28:11;;;;;;;3.10;1.50;;;6.80;99.90;;;;;;5086916;28;20418;-81
2021/05/24 05:30:37;;;;;;;1.87;1.20;;;6.90;99.90;;;;;;5067550;28;20199;-81
2021/05/24 05:33:03;;;;;;;1.47;1.27;;;7.00;99.90;;;;;;5066672;28;20662;-81
2021/05/24 05:35:29;;;;;;;1.80;1.20;;;7.10;99.90;;;;;;5066138;28;20176;-81
2021/05/24 05:37:54;;;;;;;1.37;1.10;;;7.10;99.90;;;;;;5083874;28;20422;-81
2021/05/24 05:40:21;;;;;;;1.43;1.20;;;7.10;99.90;;;;;;5084331;28;20205;-81
2021/05/24 05:42:48;;;;;;;1.57;1.20;;;7.20;99.90;;;;;;5065384;28;20196;-81
2021/05/24 05:45:14;;;;;;;2.63;1.57;;;7.30;99.90;;;;;;5064643;28;20455;-82
2021/05/24 05:47:40;;;;;;;1.40;1.10;;;7.40;99.90;;;;;;5082448;28;20169;-82
2021/05/24 05:50:07;;;;;;;1.70;1.03;;;7.50;99.90;;;;;;5063691;28;20423;-82
2021/05/24 05:52:34;;;;;;;1.67;1.47;;;7.60;99.90;;;;;;5063829;28;20697;-81
2021/05/24 05:55:01;;;;;;;1.43;1.20;;;7.60;99.90;;;;;;5071424;28;20173;-81
2021/05/24 05:57:26;;;;;;;1.30;1.20;;;7.60;99.90;;;;;;5084651;28;20195;-81
2021/05/24 05:59:53;;;;;;;2.13;1.23;;;7.70;99.90;;;;;;5067037;28;20263;-81
2021/05/24 06:02:19;;;;;;;1.73;1.23;;;7.80;99.90;;;;;;5066389;28;20180;-81
2021/05/24 06:04:44;;;;;;;3.83;1.03;;;7.80;99.90;;;;;;5065039;28;20200;-81
2021/05/24 06:07:10;;;;;;;2.40;1.33;;;7.90;99.90;;;;;;5066208;28;20177;-81
2021/05/24 06:09:36;;;;;;;2.90;1.00;;;8.00;99.90;;;;;;5083944;28;20180;-81
2021/05/24 06:12:01;;;;;;;2.23;0.93;;;8.00;99.90;;;;;;5065755;28;20228;-81
2021/05/24 06:14:27;;;;;;;1.50;1.20;;;8.10;99.90;;;;;;5083196;28;20193;-81
2021/05/24 06:16:52;;;;;;;1.13;1.03;;;8.20;99.90;;;;;;5084220;28;20677;-81
2021/05/24 06:19:18;;;;;;;3.47;1.10;;;8.10;99.90;;;;;;5065951;28;20548;-81
2021/05/24 06:21:44;;;;;;;4.17;0.97;;;8.20;99.90;;;;;;5083997;28;20607;-81
2021/05/24 06:24:10;;;;;;;2.90;1.23;;;8.20;99.90;;;;;;5066058;28;20569;-81
2021/05/24 06:26:36;;;;;;;3.80;0.90;;;8.30;99.90;;;;;;5066285;28;20186;-81
2021/05/24 06:29:02;;;;;;;1.30;0.80;;;8.50;99.90;;;;;;5065731;28;20178;-81
2021/05/24 06:31:28;;;;;;;1.43;0.90;;;8.60;99.90;;;;;;5065753;28;20186;-81
2021/05/24 06:33:54;;;;;;;1.43;0.80;;;8.70;99.90;;;;;;5084455;28;20202;-81
2021/05/24 06:36:19;;;;;;;1.00;0.87;;;8.80;99.90;;;;;;5066967;28;20686;-81
2021/05/24 06:38:45;;;;;;;1.37;1.10;;;8.90;99.90;;;;;;5085734;28;20176;-81
2021/05/24 06:41:11;;;;;;;1.37;1.00;;;9.00;99.90;;;;;;5086496;28;20173;-82
2021/05/24 06:43:38;;;;;;;0.90;0.80;;;9.00;99.90;;;;;;5087826;28;20213;-81
2021/05/24 06:46:04;;;;;;;0.80;0.70;;;9.00;99.90;;;;;;5081677;28;20203;-81
2021/05/24 06:48:30;;;;;;;2.17;1.10;;;9.00;99.90;;;;;;5082752;28;20686;-81
2021/05/24 06:50:55;;;;;;;1.70;1.10;;;9.10;99.90;;;;;;5064168;28;20643;-81
2021/05/24 06:53:21;;;;;;;1.50;1.07;;;9.20;99.90;;;;;;5081871;28;20192;-81
2021/05/24 06:55:47;;;;;;;1.27;1.00;;;9.30;99.90;;;;;;5082540;28;20169;-81
2021/05/24 06:58:12;;;;;;;1.83;0.90;;;9.40;99.90;;;;;;5082987;28;20182;-81
2021/05/24 07:00:38;;;;;;;1.53;1.23;;;9.60;99.90;;;;;;5064513;28;20184;-81
2021/05/24 07:03:04;;;;;;;1.70;1.13;;;9.80;99.90;;;;;;5083109;28;20197;-81
2021/05/24 07:05:30;;;;;;;1.37;0.80;;;9.90;99.90;;;;;;5063613;28;20254;-81
2021/05/24 07:07:55;;;;;;;1.60;1.27;;;10.00;99.90;;;;;;5083292;28;20188;-82
2021/05/24 07:10:21;;;;;;;1.30;1.00;;;10.10;99.90;;;;;;5064577;28;20173;-83
2021/05/24 07:12:47;;;;;;;2.37;0.90;;;10.20;99.90;;;;;;5082449;28;20715;-82
2021/05/24 07:15:13;;;;;;;1.73;1.10;;;10.40;99.90;;;;;;5064316;28;20219;-81
2021/05/24 07:17:39;;;;;;;2.23;1.30;;;10.40;99.90;;;;;;5063924;28;20212;-81
2021/05/24 07:20:06;;;;;;;1.93;1.20;;;10.40;99.90;;;;;;5064700;28;20186;-81
2021/05/24 07:22:32;;;;;;;2.83;1.07;;;10.30;99.90;;;;;;5064937;28;20185;-81
2021/05/24 07:24:58;;;;;;;2.47;1.20;;;10.40;99.90;;;;;;5064903;28;20216;-80
2021/05/24 07:27:24;;;;;;;3.10;1.47;;;10.40;99.90;;;;;;5064542;28;20227;-82
2021/05/24 07:29:50;;;;;;;3.67;1.70;;;10.60;99.90;;;;;;5083544;28;20173;-82
2021/05/24 07:32:16;;;;;;;1.77;1.30;;;10.70;99.90;;;;;;5084220;28;20560;-81
2021/05/24 07:34:43;;;;;;;2.73;1.80;;;10.80;99.90;;;;;;5067046;28;20185;-81
2021/05/24 07:37:09;;;;;;;1.87;1.57;;;10.90;99.90;;;;;;5073805;28;20275;-81
2021/05/24 07:39:35;;;;;;;2.33;1.37;;;11.00;99.90;;;;;;5065664;28;20180;-81
2021/05/24 07:42:01;;;;;;;2.30;1.50;;;11.10;99.90;;;;;;5083328;28;20234;-81
2021/05/24 07:44:29;;;;;;;1.80;1.37;;;11.10;99.90;;;;;;5064602;28;20201;-81
2021/05/24 07:46:55;;;;;;;4.87;1.57;;;11.20;99.90;;;;;;5082873;28;20242;-81
2021/05/24 07:49:21;;;;;;;2.57;1.60;;;11.30;99.90;;;;;;5064906;28;20533;-81
2021/05/24 07:51:48;;;;;;;3.17;1.80;;;11.50;99.90;;;;;;5083125;28;20232;-81
2021/05/24 07:54:15;;;;;;;2.40;1.57;;;11.50;99.90;;;;;;5082790;28;20227;-81
2021/05/24 07:56:40;;;;;;;4.13;1.50;;;11.60;99.90;;;;;;5082059;28;20653;-82
2021/05/24 07:59:06;;;;;;;3.53;1.40;;;11.60;99.90;;;;;;5063695;28;20181;-81
2021/05/24 08:01:32;;;;;;;2.33;1.60;;;11.60;99.90;;;;;;5087231;28;20207;-81
2021/05/24 08:03:57;;;;;;;1.33;1.10;;;11.70;99.90;;;;;;5066234;28;20193;-82
2021/05/24 08:06:23;;;;;;;2.70;1.70;;;11.70;99.90;;;;;;5083988;28;20208;-82
2021/05/24 08:08:48;;;;;;;3.20;1.40;;;11.80;99.90;;;;;;5065517;28;20173;-82
2021/05/24 08:11:15;;;;;;;2.60;1.33;;;11.80;99.90;;;;;;5065059;28;20176;-82
2021/05/24 08:13:41;;;;;;;1.73;1.60;;;11.80;99.90;;;;;;5083751;28;20681;-82
2021/05/24 08:16:12;;;;;;;1.87;1.40;;;11.90;99.90;;;;;;5065720;28;20279;-83
2021/05/24 08:18:38;;;;;;;3.03;1.10;;;11.90;99.90;;;;;;5066776;28;20188;-82
2021/05/24 08:21:05;;;;;;;1.10;0.93;;;12.00;99.90;;;;;;5066753;28;20180;-82
2021/05/24 08:23:31;;;;;;;1.43;1.00;;;12.00;99.90;;;;;;5084655;28;20197;-82
2021/05/24 08:25:56;;;;;;;1.67;1.20;;;12.00;99.90;;;;;;5083301;28;20749;-82
2021/05/24 08:28:22;;;;;;;1.40;1.00;;;12.00;99.90;;;;;;5068162;28;20200;-83
2021/05/24 08:30:48;;;;;;;2.03;1.17;;;12.00;99.90;;;;;;5071805;28;20187;-83
2021/05/24 08:33:13;;;;;;;1.47;1.00;;;11.90;99.90;;;;;;5072431;28;20196;-83
2021/05/24 08:35:39;;;;;;;1.37;0.80;;;12.00;99.90;;;;;;5072282;28;20183;-82
2021/05/24 08:38:05;;;;;;;1.17;0.90;;;12.00;99.90;;;;;;5091978;28;20180;-82
2021/05/24 08:40:31;;;;;;;1.67;1.00;;;12.00;99.90;;;;;;5093109;28;20180;-82
2021/05/24 08:42:58;;;;;;;1.70;1.00;;;12.10;99.90;;;;;;5093679;28;20553;-82
2021/05/24 08:45:28;;;;;;;1.30;1.00;;;12.20;99.90;;;;;;5073032;28;20601;-82
2021/05/24 08:47:53;;;;;;;2.67;1.30;;;12.20;99.90;;;;;;5087637;28;20201;-82
2021/05/24 08:50:19;;;;;;;1.30;1.00;;;12.20;99.90;;;;;;5070114;28;20184;-82
2021/05/24 08:52:45;;;;;;;1.10;0.80;;;12.20;99.90;;;;;;5085932;28;20204;-82
2021/05/24 08:55:12;;;;;;;1.33;0.90;;;12.30;99.90;;;;;;5069654;28;20233;-82
2021/05/24 08:57:40;;;;;;;1.57;1.27;;;12.40;99.90;;;;;;5069743;28;20176;-82
2021/05/24 09:00:08;;;;;;;1.67;1.27;;;12.60;99.90;;;;;;5070243;28;20559;-82
2021/05/24 09:02:41;;;;;;;1.90;1.30;;;12.70;99.90;;;;;;5090288;28;20246;-82
2021/05/24 09:05:10;;;;;;;3.27;1.10;;;12.80;99.90;;;;;;5088056;28;20242;-82
2021/05/24 09:07:51;;;;;;;2.80;1.10;;;12.90;99.90;;;;;;5087307;28;20164;-82
2021/05/24 09:10:19;;;;;;;2.33;0.90;;;12.90;99.90;;;;;;5068547;28;20176;-81
2021/05/24 09:12:45;;;;;;;1.50;1.20;;;12.90;99.90;;;;;;5067902;28;20203;-82
2021/05/24 09:15:14;;;;;;;2.50;1.10;;;13.00;99.90;;;;;;5088984;28;20205;-82
2021/05/24 09:17:45;;;;;;;3.00;0.93;;;13.20;99.90;;;;;;5062315;28;20177;-81
2021/05/24 09:20:20;;;;;;;1.07;0.90;;;13.30;99.90;;;;;;5067749;28;20208;-82
2021/05/24 09:23:10;;;;;;;1.27;0.93;;;13.40;99.90;;;;;;5066277;28;20284;-82
2021/05/24 09:25:56;;;;;;;3.03;2.03;;;13.40;99.90;;;;;;5074783;28;20253;-82
2021/05/24 09:28:27;;;;;;;3.37;1.80;;;13.50;99.90;;;;;;5087464;28;20243;-82
2021/05/24 09:31:03;;;;;;;2.03;1.40;;;13.60;99.90;;;;;;5070390;28;20184;-82
2021/05/24 09:33:29;;;;;;;3.70;1.50;;;13.80;99.90;;;;;;5086314;28;20195;-82
2021/05/24 09:35:55;;;;;;;2.03;1.43;;;13.90;99.90;;;;;;5076686;28;20189;-82
2021/05/24 09:38:23;;;;;;;1.80;1.10;;;14.10;99.90;;;;;;5080828;28;20187;-82
2021/05/24 09:40:59;;;;;;;1.30;1.00;;;14.40;99.90;;;;;;5087878;28;20183;-82
2021/05/24 09:43:53;;;;;;;1.33;1.03;;;14.60;99.90;;;;;;5086715;28;20610;-82
2021/05/24 09:46:22;;;;;;;1.70;1.10;;;14.90;99.90;;;;;;5084232;28;20214;-82
2021/05/24 09:48:53;;;;;;;1.60;1.40;;;15.10;99.90;;;;;;5087277;28;20179;-82
2021/05/24 09:51:24;;;;;;;1.17;1.07;;;15.30;99.90;;;;;;5105275;28;20172;-82
2021/05/24 09:54:09;;;;;;;2.10;1.00;;;15.40;99.90;;;;;;5087988;28;20692;-82
2021/05/24 09:56:38;;;;;;;1.37;1.10;;;15.50;99.90;;;;;;5106975;28;20172;-82
2021/05/24 09:59:13;;;;;;;3.83;1.10;;;15.60;99.90;;;;;;5087936;28;20176;-82
2021/05/24 10:01:42;;;;;;;4.13;1.20;;;15.60;99.90;;;;;;5087990;28;20171;-82
2021/05/24 10:04:13;;;;;;;1.10;1.00;;;15.70;99.90;;;;;;5088821;28;20207;-82
2021/05/24 10:06:40;;;;;;;1.10;0.97;;;15.60;99.90;;;;;;5110741;28;20202;-82
2021/05/24 10:09:09;;;;;;;1.83;1.10;;;15.50;99.90;;;;;;5087615;28;20172;-82
2021/05/24 10:11:36;;;;;;;2.83;1.30;;;15.50;99.90;;;;;;5085848;28;20270;-82
2021/05/24 10:14:03;;;;;;;1.47;1.00;;;15.50;99.90;;;;;;5104321;28;20293;-83
2021/05/24 10:16:32;;;;;;;1.20;0.80;;;15.50;99.90;;;;;;5096676;28;20164;-82
2021/05/24 10:18:58;;;;;;;2.50;1.30;;;15.60;99.90;;;;;;5105343;28;20239;-84
2021/05/24 10:21:25;;;;;;;2.40;1.20;;;15.70;99.90;;;;;;5087930;28;20626;-83
2021/05/24 10:23:52;;;;;;;1.40;1.20;;;15.80;99.90;;;;;;5106473;28;20200;-83
2021/05/24 10:26:19;;;;;;;1.90;1.10;;;15.90;99.90;;;;;;5088308;28;20211;-83
2021/05/24 10:28:47;;;;;;;1.57;1.20;;;16.00;99.90;;;;;;5089147;28;20176;-82
2021/05/24 10:31:22;;;;;;;2.20;1.40;;;16.10;99.90;;;;;;5088872;28;20176;-82
2021/05/24 10:33:49;;;;;;;2.70;1.67;;;16.10;99.90;;;;;;5098765;28;20188;-82
2021/05/24 10:36:30;;;;;;;1.10;1.00;;;16.20;99.90;;;;;;5093213;28;20176;-83
2021/05/24 10:39:13;;;;;;;1.43;1.27;;;16.10;99.90;;;;;;5086537;28;20175;-83
2021/05/24 10:41:54;;;;;;;1.83;1.27;;;16.10;99.90;;;;;;5073762;28;20172;-83
2021/05/24 10:44:24;;;;;;;1.33;1.20;;;16.00;99.90;;;;;;5065845;28;20210;-83
2021/05/24 10:46:53;;;;;;;2.27;1.30;;;16.20;99.90;;;;;;5084639;28;20639;-82
2021/05/24 10:49:26;;;;;;;1.83;1.43;;;16.30;99.90;;;;;;5067191;28;20268;-82
2021/05/24 10:51:58;;;;;;;2.53;1.97;;;16.40;99.90;;;;;;5066230;28;20177;-82
2021/05/24 10:54:28;;;;;;;3.60;2.13;;;16.50;99.90;;;;;;5084011;28;20189;-82
2021/05/24 10:57:00;;;;;;;3.73;1.43;;;16.70;99.90;;;;;;5090771;28;20175;-82
2021/05/24 10:59:44;;;;;;;2.37;1.20;;;16.90;99.90;;;;;;5093642;28;20199;-82
2021/05/24 11:02:14;;;;;;;2.77;1.47;;;17.20;99.90;;;;;;5066461;28;20172;-82
2021/05/24 11:04:59;;;;;;;2.03;1.20;;;17.50;99.90;;;;;;5065584;28;20202;-82
2021/05/24 11:07:44;;;;;;;3.63;1.23;;;17.70;99.90;;;;;;5066216;28;20264;-83
2021/05/24 11:10:12;;;;;;;2.90;1.70;;;17.90;99.90;;;;;;5066137;28;20190;-82
2021/05/24 11:12:40;;;;;;;2.77;1.60;;;18.20;99.90;;;;;;5081848;28;20197;-82
2021/05/24 11:15:20;;;;;;;1.60;1.40;;;18.30;99.90;;;;;;5092538;28;20179;-83
2021/05/24 11:17:58;;;;;;;1.43;1.17;;;18.50;99.90;;;;;;5091075;28;20590;-83
2021/05/24 11:20:47;;;;;;;4.30;1.90;;;18.70;99.90;;;;;;5084283;28;20181;-82
2021/05/24 11:26:37;;;;;;;3.43;2.10;;;19.10;99.90;;;;;;5022178;28;20716;-83
2021/05/24 11:29:10;;;;;;;2.30;1.80;;;19.20;99.90;;;;;;5072727;28;20216;-83
2021/05/24 11:31:36;;;;;;;1.60;1.30;;;19.20;99.90;;;;;;5066302;28;20181;-83
2021/05/24 11:34:06;;;;;;;1.80;1.43;;;19.20;97.70;;;;;;5099712;28;20201;-83
2021/05/24 11:36:35;;;;;;;1.70;1.27;;;19.40;99.90;;;;;;5086485;28;20208;-83
2021/05/24 11:39:17;;;;;;;6.07;4.60;;;19.50;98.00;;;;;;5087348;28;20185;-83
2021/05/24 11:41:51;;;;;;;3.60;2.40;;;19.70;95.00;;;;;;5104893;28;20165;-83
2021/05/24 11:44:16;;;;;;;2.77;1.73;;;19.40;94.40;;;;;;5105103;28;20670;-83
2021/05/24 11:46:48;;;;;;;2.67;1.30;;;19.40;93.40;;;;;;5088563;28;20216;-83
2021/05/24 11:49:15;;;;;;;2.07;0.90;;;19.30;91.90;;;;;;5106454;28;20178;-83
2021/05/24 11:51:43;;;;;;;4.07;1.00;;;19.10;92.70;;;;;;5094272;28;20249;-84
2021/05/24 11:54:13;;;;;;;1.63;1.47;;;19.00;92.60;;;;;;5093307;28;20219;-84
2021/05/24 11:56:43;;;;;;;3.20;1.03;;;19.00;93.40;;;;;;5090003;28;20186;-85
2021/05/24 11:59:17;;;;;;;3.37;1.63;;;18.70;92.50;;;;;;5084566;28;20182;-84
2021/05/24 12:01:45;;;;;;;6.67;3.20;;;18.50;95.60;;;;;;5081557;28;20187;-84
2021/05/24 12:04:15;;;;;;;1.73;1.33;;;18.40;94.10;;;;;;5083748;28;20260;-83
2021/05/24 12:06:45;;;;;;;3.03;2.30;;;18.10;94.10;;;;;;5082752;28;20313;-83
2021/05/24 12:09:12;;;;;;;4.13;2.00;;;17.70;94.70;;;;;;5085768;28;20184;-83
2021/05/24 12:11:53;;;;;;;1.67;1.20;;;17.60;95.40;;;;;;5093674;28;20176;-83
2021/05/24 12:14:19;;;;;;;1.10;1.00;;;17.60;95.40;;;;;;5089591;28;20284;-82
2021/05/24 12:16:45;;;;;;;1.40;0.90;;;17.50;95.80;;;;;;5089642;28;20215;-83
2021/05/24 12:19:10;;;;;;;1.77;1.07;;;17.50;95.20;;;;;;5088729;28;20615;-83
2021/05/24 12:21:38;;;;;;;1.57;1.10;;;17.40;95.00;;;;;;5089197;28;20189;-83
2021/05/24 12:24:06;;;;;;;0.90;0.70;;;17.40;95.90;;;;;;5106790;28;20208;-83
2021/05/24 12:26:33;;;;;;;0.93;0.80;;;17.50;95.30;;;;;;5088606;28;20196;-83
2021/05/24 12:28:59;;;;;;;0.60;0.60;;;17.60;96.30;;;;;;5088224;28;20268;-83
2021/05/24 12:31:27;;;;;;;2.43;0.70;;;17.80;94.80;;;;;;5088493;28;20217;-82
2021/05/24 12:33:55;;;;;;;0.77;0.70;;;17.90;95.80;;;;;;5106519;28;20256;-83
2021/05/24 12:36:22;;;;;;;0.80;0.70;;;17.80;94.40;;;;;;5087632;28;20223;-83
2021/05/24 12:38:55;;;;;;;0.60;0.60;;;17.70;94.50;;;;;;5087251;28;20271;-83
2021/05/24 12:41:21;;;;;;;0.70;0.70;;;17.60;95.00;;;;;;5110755;28;20148;-83
2021/05/24 12:43:53;;;;;;;0.67;0.60;;;17.60;94.50;;;;;;5092110;28;20234;-83
2021/05/24 12:46:22;;;;;;;0.70;0.70;;;17.50;94.60;;;;;;5088744;28;20661;-83
2021/05/24 12:48:51;;;;;;;0.90;0.60;;;17.40;94.70;;;;;;5088428;28;20168;-83
2021/05/24 12:51:20;;;;;;;1.03;0.73;;;17.40;96.90;;;;;;5089112;28;20173;-83
2021/05/24 12:54:01;;;;;;;0.77;0.73;;;17.20;95.10;;;;;;5089502;28;20215;-83
2021/05/24 12:56:34;;;;;;;1.10;0.80;;;17.10;96.20;;;;;;5089286;28;20202;-83
2021/05/24 12:59:02;;;;;;;1.00;0.80;;;17.00;96.50;;;;;;5107723;28;20529;-83
2021/05/24 13:01:32;;;;;;;1.83;0.83;;;16.90;96.80;;;;;;5107569;28;20169;-83
2021/05/24 13:04:02;;;;;;;1.70;1.20;;;16.80;97.30;;;;;;5089119;28;20196;-83
2021/05/24 13:06:27;;;;;;;0.70;0.60;;;16.70;98.40;;;;;;5088483;28;20204;-83